createdAt,value
2017-12-30T00:01:08.474Z,10.03
2017-12-30T00:03:37.652Z,8.67
2017-12-30T00:06:06.528Z,6.57
2017-12-30T00:08:35.391Z,7.77
2017-12-30T00:11:04.225Z,9.23
2017-12-30T00:13:33.110Z,7.27
2017-12-30T00:16:02.000Z,6.97
2017-12-30T00:18:31.084Z,10.13
2017-12-30T00:20:59.960Z,8.47
2017-12-30T00:23:28.811Z,13.27
2017-12-30T00:25:57.663Z,12.27
2017-12-30T00:28:26.510Z,9.57
2017-12-30T00:30:55.357Z,12.03
2017-12-30T00:33:24.182Z,9.37
2017-12-30T00:35:53.050Z,6.97
2017-12-30T00:38:21.880Z,9.87
2017-12-30T00:40:51.493Z,10.40
2017-12-30T00:43:20.371Z,11.83
2017-12-30T00:45:49.217Z,13.00
2017-12-30T00:48:18.892Z,10.70
2017-12-30T00:50:47.780Z,11.63
2017-12-30T00:53:16.624Z,11.77
2017-12-30T00:55:46.484Z,11.83
2017-12-30T00:58:15.347Z,11.80
2017-12-30T01:00:44.171Z,8.70
2017-12-30T01:03:13.021Z,10.30
2017-12-30T01:05:41.879Z,12.73
2017-12-30T01:08:11.472Z,8.10
2017-12-30T01:10:40.312Z,9.07
2017-12-30T01:13:09.185Z,9.60
2017-12-30T01:15:38.044Z,8.40
2017-12-30T01:18:06.894Z,5.53
2017-12-30T01:20:35.782Z,12.60
2017-12-30T01:23:04.686Z,8.17
2017-12-30T01:25:33.848Z,9.37
2017-12-30T01:28:02.772Z,8.20
2017-12-30T01:30:31.668Z,11.67
2017-12-30T01:33:00.462Z,10.67
2017-12-30T01:35:29.345Z,13.10
2017-12-30T01:37:58.181Z,9.03
2017-12-30T01:40:27.018Z,7.77
2017-12-30T01:42:55.898Z,8.80
2017-12-30T01:45:24.790Z,10.90
2017-12-30T01:47:53.621Z,8.80
2017-12-30T01:50:22.487Z,7.37
2017-12-30T01:52:51.365Z,11.23
2017-12-30T01:55:20.205Z,12.67
2017-12-30T01:57:49.105Z,18.90
2017-12-30T02:00:17.950Z,12.17
2017-12-30T02:02:46.815Z,8.93
2017-12-30T02:05:15.717Z,16.10
2017-12-30T02:07:44.553Z,6.30
2017-12-30T02:10:13.416Z,15.37
2017-12-30T02:12:42.272Z,6.33
2017-12-30T02:15:11.131Z,8.90
2017-12-30T02:17:39.961Z,8.27
2017-12-30T02:20:08.848Z,11.90
2017-12-30T02:22:37.728Z,10.23
2017-12-30T02:25:06.591Z,8.43
2017-12-30T02:27:35.474Z,9.53
2017-12-30T02:30:04.303Z,6.70
2017-12-30T02:32:33.149Z,9.53
2017-12-30T02:35:02.044Z,11.47
2017-12-30T02:37:30.884Z,10.17
2017-12-30T02:39:59.750Z,12.03
2017-12-30T02:42:28.612Z,8.97
2017-12-30T02:44:57.856Z,15.57
2017-12-30T02:47:26.712Z,14.97
2017-12-30T02:49:55.564Z,8.00
2017-12-30T02:52:24.408Z,9.90
2017-12-30T02:54:53.249Z,11.17
2017-12-30T02:57:23.071Z,10.20
2017-12-30T02:59:51.910Z,8.67
2017-12-30T03:02:21.528Z,10.43
2017-12-30T03:04:50.396Z,12.60
2017-12-30T03:07:19.234Z,10.07
2017-12-30T03:09:48.831Z,7.10
2017-12-30T03:12:18.553Z,10.40
2017-12-30T03:14:47.644Z,7.93
2017-12-30T03:17:16.527Z,6.27
2017-12-30T03:19:45.398Z,14.53
2017-12-30T03:22:14.245Z,12.43
2017-12-30T03:24:43.072Z,7.30
2017-12-30T03:27:12.796Z,17.83
2017-12-30T03:29:41.636Z,10.13
2017-12-30T03:32:10.498Z,12.73
2017-12-30T03:34:39.382Z,13.77
2017-12-30T03:37:08.239Z,10.10
2017-12-30T03:39:37.104Z,10.83
2017-12-30T03:42:05.984Z,17.70
2017-12-30T03:44:34.812Z,8.67
2017-12-30T03:47:03.674Z,12.53
2017-12-30T03:49:32.540Z,12.33
2017-12-30T03:52:01.486Z,12.53
2017-12-30T03:54:30.336Z,11.90
2017-12-30T03:56:59.194Z,7.33
2017-12-30T03:59:28.027Z,12.73
2017-12-30T04:01:57.872Z,10.83
2017-12-30T04:04:26.737Z,11.77
2017-12-30T04:06:55.580Z,13.67
2017-12-30T04:09:24.415Z,9.50
2017-12-30T04:11:53.271Z,8.63
2017-12-30T04:14:22.120Z,11.37
2017-12-30T04:16:50.990Z,11.47
2017-12-30T04:19:19.914Z,16.30
2017-12-30T04:21:48.740Z,15.40
2017-12-30T04:24:18.478Z,12.97
2017-12-30T04:26:47.378Z,17.00
2017-12-30T04:29:16.977Z,12.83
2017-12-30T04:31:45.864Z,10.77
2017-12-30T04:34:14.728Z,11.60
2017-12-30T04:36:43.587Z,15.20
2017-12-30T04:39:12.448Z,20.00
2017-12-30T04:41:41.326Z,11.30
2017-12-30T04:44:10.175Z,11.03
2017-12-30T04:46:39.010Z,11.13
2017-12-30T04:49:07.920Z,13.83
2017-12-30T04:51:36.768Z,15.60
2017-12-30T04:54:05.605Z,9.07
2017-12-30T04:56:35.010Z,7.80
2017-12-30T04:59:03.894Z,13.70
2017-12-30T05:01:32.729Z,13.23
2017-12-30T05:04:01.612Z,13.50
2017-12-30T05:06:30.508Z,12.27
2017-12-30T05:08:59.342Z,17.10
2017-12-30T05:11:28.196Z,13.87
2017-12-30T05:13:57.168Z,14.43
2017-12-30T05:16:26.008Z,13.10
2017-12-30T05:18:54.917Z,13.87
2017-12-30T05:21:23.775Z,15.83
2017-12-30T05:23:52.631Z,14.73
2017-12-30T05:26:21.490Z,17.90
2017-12-30T05:28:50.320Z,12.77
2017-12-30T05:31:19.176Z,8.93
2017-12-30T05:33:48.046Z,12.07
2017-12-30T05:36:17.814Z,13.10
2017-12-30T05:38:46.646Z,11.20
2017-12-30T05:41:15.532Z,13.03
2017-12-30T05:43:44.368Z,16.30
2017-12-30T05:46:14.224Z,13.07
2017-12-30T05:48:43.610Z,9.00
2017-12-30T05:51:12.543Z,14.40
2017-12-30T05:53:41.382Z,13.23
2017-12-30T05:56:10.805Z,13.27
2017-12-30T05:58:39.641Z,6.97
2017-12-30T06:01:08.500Z,15.20
2017-12-30T06:03:37.359Z,10.87
2017-12-30T06:06:06.180Z,12.57
2017-12-30T06:08:35.049Z,8.10
2017-12-30T06:11:03.939Z,10.20
2017-12-30T06:13:32.794Z,7.93
2017-12-30T06:16:01.636Z,14.00
2017-12-30T06:18:30.536Z,9.67
2017-12-30T06:20:59.373Z,9.77
2017-12-30T06:23:28.876Z,4.50
2017-12-30T06:25:57.933Z,14.33
2017-12-30T06:28:27.632Z,4.90
2017-12-30T06:30:56.495Z,7.53
2017-12-30T06:33:25.372Z,8.63
2017-12-30T06:35:54.225Z,11.23
2017-12-30T06:38:23.099Z,6.53
2017-12-30T06:40:51.997Z,4.97
2017-12-30T06:43:20.857Z,5.77
2017-12-30T06:45:49.687Z,10.10
2017-12-30T06:48:18.534Z,7.77
2017-12-30T06:50:47.371Z,8.87
2017-12-30T06:53:16.209Z,9.40
2017-12-30T06:55:45.054Z,6.50
2017-12-30T06:58:13.891Z,5.00
2017-12-30T07:00:42.757Z,8.77
2017-12-30T07:03:11.637Z,6.80
2017-12-30T07:05:40.494Z,11.93
2017-12-30T07:08:09.326Z,7.70
2017-12-30T07:10:38.205Z,8.83
2017-12-30T07:13:07.040Z,6.17
2017-12-30T07:15:35.875Z,6.07
2017-12-30T07:18:04.775Z,6.37
2017-12-30T07:20:33.649Z,5.77
2017-12-30T07:23:02.538Z,5.13
2017-12-30T07:25:31.374Z,6.40
2017-12-30T07:28:00.212Z,7.07
2017-12-30T07:30:29.057Z,7.60
2017-12-30T07:32:58.962Z,8.60
2017-12-30T07:35:27.849Z,6.53
2017-12-30T07:37:56.724Z,4.87
2017-12-30T07:40:25.577Z,7.03
2017-12-30T07:42:54.416Z,6.73
2017-12-30T07:45:23.264Z,7.20
2017-12-30T07:47:52.142Z,2.87
2017-12-30T07:50:21.292Z,3.03
2017-12-30T07:52:50.139Z,3.43
2017-12-30T07:55:19.218Z,3.53
2017-12-30T07:57:48.054Z,7.37
2017-12-30T08:00:17.626Z,5.60
2017-12-30T08:02:47.165Z,6.27
2017-12-30T08:05:16.026Z,5.30
2017-12-30T08:07:45.932Z,2.40
2017-12-30T08:10:14.757Z,1.30
2017-12-30T08:12:43.594Z,3.03
2017-12-30T08:15:12.472Z,4.90
2017-12-30T08:17:41.319Z,2.13
2017-12-30T08:20:10.142Z,4.57
2017-12-30T08:22:39.004Z,3.10
2017-12-30T08:25:07.852Z,3.80
2017-12-30T08:27:36.704Z,3.67
2017-12-30T08:30:05.611Z,3.33
2017-12-30T08:32:34.438Z,3.37
2017-12-30T08:35:03.282Z,2.93
2017-12-30T08:37:33.438Z,3.13
2017-12-30T08:40:03.409Z,3.73
2017-12-30T08:42:32.300Z,3.60
2017-12-30T08:45:01.152Z,3.27
2017-12-30T08:47:30.008Z,4.40
2017-12-30T08:49:58.872Z,6.23
2017-12-30T08:52:27.701Z,4.70
2017-12-30T08:54:57.243Z,3.83
2017-12-30T08:57:26.097Z,5.07
2017-12-30T08:59:54.955Z,4.30
2017-12-30T09:02:23.792Z,5.10
2017-12-30T09:04:53.526Z,4.53
2017-12-30T09:07:22.363Z,19.60
2017-12-30T09:09:51.235Z,12.47
2017-12-30T09:12:20.098Z,12.40
2017-12-30T09:14:49.037Z,11.57
2017-12-30T09:17:17.885Z,12.53
2017-12-30T09:19:46.782Z,7.17
2017-12-30T09:22:15.639Z,44.60
2017-12-30T09:24:44.506Z,12.67
2017-12-30T09:27:13.379Z,13.07
2017-12-30T09:29:42.224Z,22.13
2017-12-30T09:32:11.060Z,28.97
2017-12-30T09:34:39.931Z,17.83
2017-12-30T09:37:08.800Z,18.03
2017-12-30T09:39:37.959Z,16.50
2017-12-30T09:42:06.861Z,28.23
2017-12-30T09:44:35.699Z,19.90
2017-12-30T09:47:04.559Z,18.67
2017-12-30T09:49:33.419Z,16.30
2017-12-30T09:52:02.330Z,18.40
2017-12-30T09:54:31.185Z,15.20
2017-12-30T09:57:00.070Z,21.93
2017-12-30T09:59:28.909Z,36.03
2017-12-30T10:01:57.908Z,27.63
2017-12-30T10:04:26.771Z,22.67
2017-12-30T10:06:55.611Z,23.87
2017-12-30T10:09:24.755Z,26.80
2017-12-30T10:11:54.354Z,29.80
2017-12-30T10:14:23.208Z,39.90
2017-12-30T10:16:52.064Z,35.77
2017-12-30T10:19:21.215Z,41.53
2017-12-30T10:21:50.052Z,33.87
2017-12-30T10:24:18.919Z,34.30
2017-12-30T10:26:47.777Z,37.47
2017-12-30T10:29:16.618Z,33.13
2017-12-30T10:31:45.472Z,40.47
2017-12-30T10:34:14.325Z,28.87
2017-12-30T10:36:43.169Z,34.33
2017-12-30T10:39:12.028Z,48.17
2017-12-30T10:41:40.927Z,42.30
2017-12-30T10:44:09.780Z,29.83
2017-12-30T10:46:38.611Z,36.07
2017-12-30T10:49:07.479Z,37.00
2017-12-30T10:51:36.312Z,32.93
2017-12-30T10:54:05.153Z,46.57
2017-12-30T10:56:34.086Z,28.83
2017-12-30T10:59:02.944Z,40.83
2017-12-30T11:01:31.798Z,33.73
2017-12-30T11:04:00.653Z,44.40
2017-12-30T11:06:30.592Z,37.00
2017-12-30T11:08:59.428Z,36.07
2017-12-30T11:11:28.291Z,42.10
2017-12-30T11:13:57.222Z,42.77
2017-12-30T11:16:26.056Z,33.17
2017-12-30T11:18:54.930Z,35.67
2017-12-30T11:21:23.800Z,38.60
2017-12-30T11:23:53.304Z,39.83
2017-12-30T11:26:23.566Z,40.90
2017-12-30T11:28:52.406Z,40.80
2017-12-30T11:31:21.268Z,37.93
2017-12-30T11:33:50.158Z,32.30
2017-12-30T11:36:18.991Z,43.07
2017-12-30T11:38:48.563Z,40.10
2017-12-30T11:41:17.400Z,46.20
2017-12-30T11:43:46.238Z,45.80
2017-12-30T11:46:15.158Z,38.67
2017-12-30T11:48:43.996Z,46.10
2017-12-30T11:51:13.488Z,36.03
2017-12-30T11:53:42.342Z,36.03
2017-12-30T11:56:11.211Z,35.53
2017-12-30T11:58:40.046Z,44.57
2017-12-30T12:01:08.948Z,40.30
2017-12-30T12:03:37.796Z,38.47
2017-12-30T12:06:06.633Z,33.90
2017-12-30T12:08:35.507Z,39.47
2017-12-30T12:11:05.219Z,42.87
2017-12-30T12:13:34.036Z,41.57
2017-12-30T12:16:02.916Z,39.60
2017-12-30T12:18:31.754Z,36.57
2017-12-30T12:21:00.599Z,32.33
2017-12-30T12:23:29.507Z,38.23
2017-12-30T12:25:59.045Z,34.00
2017-12-30T12:28:27.891Z,36.80
2017-12-30T12:30:56.759Z,36.30
2017-12-30T12:33:25.604Z,30.50
2017-12-30T12:35:54.445Z,38.23
2017-12-30T12:38:23.328Z,32.60
2017-12-30T12:40:52.221Z,39.63
2017-12-30T12:43:21.065Z,37.50
2017-12-30T12:45:50.049Z,39.37
2017-12-30T12:48:18.891Z,48.53
2017-12-30T12:50:47.738Z,29.23
2017-12-30T12:53:17.152Z,33.77
2017-12-30T12:55:45.990Z,33.17
2017-12-30T12:58:14.862Z,30.53
2017-12-30T13:00:44.290Z,32.27
2017-12-30T13:03:13.183Z,25.60
2017-12-30T13:05:42.050Z,31.67
2017-12-30T13:08:10.934Z,30.40
2017-12-30T13:10:39.862Z,26.30
2017-12-30T13:13:08.693Z,33.40
2017-12-30T13:15:37.637Z,37.07
2017-12-30T13:18:06.500Z,30.43
2017-12-30T13:20:35.349Z,24.40
2017-12-30T13:23:04.217Z,23.20
2017-12-30T13:25:33.052Z,29.90
2017-12-30T13:28:01.906Z,33.60
2017-12-30T13:30:30.756Z,35.83
2017-12-30T13:33:00.304Z,27.27
2017-12-30T13:35:30.186Z,31.17
2017-12-30T13:37:59.080Z,29.80
2017-12-30T13:40:27.916Z,26.07
2017-12-30T13:42:56.772Z,23.00
2017-12-30T13:45:25.642Z,26.50
2017-12-30T13:47:54.510Z,29.80
2017-12-30T13:50:23.344Z,30.73
2017-12-30T13:52:52.234Z,28.93
2017-12-30T13:55:21.080Z,26.27
2017-12-30T13:57:49.937Z,36.80
2017-12-30T14:00:18.989Z,30.13
2017-12-30T14:02:47.839Z,27.40
2017-12-30T14:05:16.726Z,30.97
2017-12-30T14:07:45.596Z,32.37
2017-12-30T14:10:14.437Z,29.53
2017-12-30T14:12:43.282Z,28.60
2017-12-30T14:15:12.146Z,28.10
2017-12-30T14:17:41.018Z,27.67
2017-12-30T14:20:09.871Z,30.87
2017-12-30T14:22:38.736Z,24.50
2017-12-30T14:25:07.587Z,33.93
2017-12-30T14:27:37.433Z,26.20
2017-12-30T14:30:06.342Z,27.37
2017-12-30T14:32:35.216Z,32.73
2017-12-30T14:35:04.102Z,30.03
2017-12-30T14:37:32.975Z,24.03
2017-12-30T14:40:01.868Z,29.20
2017-12-30T14:42:30.718Z,26.87
2017-12-30T14:44:59.572Z,23.50
2017-12-30T14:47:28.947Z,31.20
2017-12-30T14:49:57.782Z,24.37
2017-12-30T14:52:26.642Z,26.87
2017-12-30T14:54:55.488Z,25.17
2017-12-30T14:57:24.348Z,32.77
2017-12-30T14:59:53.931Z,25.67
2017-12-30T15:02:22.772Z,32.20
2017-12-30T15:04:51.626Z,21.13
2017-12-30T15:07:20.811Z,28.77
2017-12-30T15:09:49.726Z,26.97
2017-12-30T15:12:18.598Z,22.50
2017-12-30T15:14:48.181Z,22.33
2017-12-30T15:17:17.749Z,25.80
2017-12-30T15:19:46.613Z,27.17
2017-12-30T15:22:15.453Z,25.77
2017-12-30T15:24:44.299Z,28.20
2017-12-30T15:27:13.771Z,24.37
2017-12-30T15:29:43.162Z,29.37
2017-12-30T15:32:11.998Z,21.63
2017-12-30T15:34:40.866Z,24.10
2017-12-30T15:37:09.711Z,28.73
2017-12-30T15:39:38.650Z,26.47
2017-12-30T15:42:07.544Z,22.00
2017-12-30T15:44:36.388Z,23.50
2017-12-30T15:47:05.278Z,27.00
2017-12-30T15:49:34.483Z,25.43
2017-12-30T15:52:03.324Z,26.07
2017-12-30T15:54:32.188Z,26.17
2017-12-30T15:57:01.050Z,25.23
2017-12-30T15:59:29.880Z,35.77
2017-12-30T16:01:58.741Z,52.23
2017-12-30T16:04:27.616Z,27.07
2017-12-30T16:06:56.492Z,33.20
2017-12-30T16:09:25.332Z,29.00
2017-12-30T16:11:54.910Z,27.43
2017-12-30T16:14:23.747Z,22.33
2017-12-30T16:16:52.654Z,29.50
2017-12-30T16:19:21.508Z,32.03
2017-12-30T16:21:50.340Z,27.40
2017-12-30T16:24:20.740Z,24.53
2017-12-30T16:26:49.610Z,29.87
2017-12-30T16:29:18.443Z,27.40
2017-12-30T16:31:47.274Z,24.07
2017-12-30T16:34:16.562Z,24.43
2017-12-30T16:36:46.046Z,21.70
2017-12-30T16:39:15.852Z,26.87
2017-12-30T16:41:44.728Z,38.00
2017-12-30T16:44:13.562Z,21.37
2017-12-30T16:46:42.400Z,24.37
2017-12-30T16:49:11.996Z,26.80
2017-12-30T16:51:40.866Z,23.90
2017-12-30T16:54:09.718Z,22.70
2017-12-30T16:56:38.578Z,19.53
2017-12-30T16:59:07.435Z,20.90
2017-12-30T17:01:36.630Z,28.43
2017-12-30T17:04:05.550Z,24.63
2017-12-30T17:06:34.402Z,25.80
2017-12-30T17:09:03.266Z,22.70
2017-12-30T17:11:32.178Z,22.77
2017-12-30T17:14:01.008Z,27.37
2017-12-30T17:16:29.912Z,26.03
2017-12-30T17:18:58.774Z,25.97
2017-12-30T17:21:29.250Z,34.80
2017-12-30T17:23:58.881Z,19.90
2017-12-30T17:26:27.720Z,18.93
2017-12-30T17:28:56.568Z,18.43
2017-12-30T17:31:25.457Z,26.27
2017-12-30T17:33:54.304Z,25.80
2017-12-30T17:36:23.180Z,33.60
2017-12-30T17:38:52.056Z,24.30
2017-12-30T17:41:20.896Z,28.43
2017-12-30T17:43:49.748Z,21.10
2017-12-30T17:46:18.616Z,24.47
2017-12-30T17:48:47.480Z,23.40
2017-12-30T17:51:17.274Z,35.50
2017-12-30T17:53:46.150Z,21.20
2017-12-30T17:56:14.998Z,27.00
2017-12-30T17:58:43.896Z,28.47
2017-12-30T18:01:12.767Z,23.63
2017-12-30T18:03:41.598Z,23.13
2017-12-30T18:06:10.454Z,22.00
2017-12-30T18:08:39.324Z,28.03
2017-12-30T18:11:08.182Z,26.73
2017-12-30T18:13:37.364Z,28.87
2017-12-30T18:16:06.283Z,26.00
2017-12-30T18:18:35.722Z,18.83
2017-12-30T18:21:04.617Z,26.07
2017-12-30T18:23:33.484Z,22.30
2017-12-30T18:26:02.343Z,30.10
2017-12-30T18:28:31.192Z,27.90
2017-12-30T18:31:00.048Z,32.03
2017-12-30T18:33:28.904Z,20.80
2017-12-30T18:35:57.743Z,20.93
2017-12-30T18:38:26.634Z,20.50
2017-12-30T18:40:56.517Z,25.83
2017-12-30T18:43:25.360Z,23.90
2017-12-30T18:45:54.250Z,31.07
2017-12-30T18:48:23.754Z,26.60
2017-12-30T18:50:52.589Z,27.37
2017-12-30T18:53:21.464Z,21.27
2017-12-30T18:55:51.718Z,25.93
2017-12-30T18:58:20.578Z,29.73
2017-12-30T19:00:49.439Z,32.33
2017-12-30T19:03:18.278Z,21.83
2017-12-30T19:05:47.115Z,33.27
2017-12-30T19:08:15.990Z,23.30
2017-12-30T19:10:44.845Z,26.20
2017-12-30T19:13:13.764Z,31.50
2017-12-30T19:15:42.632Z,27.87
2017-12-30T19:18:11.484Z,27.97
2017-12-30T19:20:40.328Z,25.17
2017-12-30T19:23:09.242Z,27.03
2017-12-30T19:25:38.088Z,25.63
2017-12-30T19:28:07.672Z,28.33
2017-12-30T19:30:37.104Z,36.33
2017-12-30T19:33:05.972Z,28.20
2017-12-30T19:35:34.912Z,29.97
2017-12-30T19:38:03.772Z,29.43
2017-12-30T19:40:32.634Z,24.90
2017-12-30T19:43:01.474Z,26.97
2017-12-30T19:45:30.389Z,25.80
2017-12-30T19:47:59.240Z,25.50
2017-12-30T19:50:28.077Z,26.43
2017-12-30T19:52:56.973Z,34.47
2017-12-30T19:55:25.813Z,34.30
2017-12-30T19:57:54.672Z,32.83
2017-12-30T20:00:24.282Z,22.63
2017-12-30T20:02:53.123Z,28.73
2017-12-30T20:05:21.976Z,34.80
2017-12-30T20:07:50.850Z,36.83
2017-12-30T20:10:19.826Z,38.77
2017-12-30T20:12:48.692Z,29.33
2017-12-30T20:15:17.662Z,29.27
2017-12-30T20:17:46.510Z,24.80
2017-12-30T20:20:15.381Z,28.00
2017-12-30T20:22:44.237Z,32.13
2017-12-30T20:25:13.128Z,26.87
2017-12-30T20:27:41.981Z,30.50
2017-12-30T20:30:10.932Z,30.43
2017-12-30T20:32:39.780Z,22.60
2017-12-30T20:35:08.731Z,28.03
2017-12-30T20:37:37.724Z,25.37
2017-12-30T20:40:06.607Z,26.07
2017-12-30T20:42:35.492Z,27.80
2017-12-30T20:45:04.784Z,26.30
2017-12-30T20:47:33.638Z,30.43
2017-12-30T20:50:02.506Z,22.67
2017-12-30T20:52:31.510Z,25.93
2017-12-30T20:55:00.686Z,26.40
2017-12-30T20:57:29.542Z,26.10
2017-12-30T20:59:58.484Z,28.77
2017-12-30T21:02:27.455Z,30.27
2017-12-30T21:04:56.370Z,29.67
2017-12-30T21:07:25.208Z,30.30
2017-12-30T21:09:54.068Z,28.73
2017-12-30T21:12:22.904Z,31.67
2017-12-30T21:14:51.768Z,30.57
2017-12-30T21:17:20.691Z,30.30
2017-12-30T21:19:49.540Z,27.47
2017-12-30T21:22:18.408Z,29.70
2017-12-30T21:24:47.520Z,37.43
2017-12-30T21:27:16.402Z,24.93
2017-12-30T21:29:45.384Z,36.90
2017-12-30T21:32:14.301Z,26.50
2017-12-30T21:34:43.175Z,32.50
2017-12-30T21:37:12.066Z,29.23
2017-12-30T21:39:41.634Z,30.43
2017-12-30T21:42:10.579Z,27.70
2017-12-30T21:44:39.428Z,30.20
2017-12-30T21:47:08.284Z,27.33
2017-12-30T21:49:37.132Z,28.53
2017-12-30T21:52:06.058Z,32.87
2017-12-30T21:54:34.906Z,24.50
2017-12-30T21:57:03.798Z,31.67
2017-12-30T21:59:32.702Z,26.37
2017-12-30T22:02:01.564Z,30.23
2017-12-30T22:04:30.497Z,26.80
2017-12-30T22:06:59.362Z,28.70
2017-12-30T22:09:28.196Z,29.43
2017-12-30T22:11:57.064Z,29.90
2017-12-30T22:14:25.899Z,27.30
2017-12-30T22:16:55.729Z,30.27
2017-12-30T22:19:24.592Z,27.63
2017-12-30T22:21:53.426Z,29.63
2017-12-30T22:24:23.002Z,30.17
2017-12-30T22:26:51.894Z,27.47
2017-12-30T22:29:20.740Z,25.40
2017-12-30T22:31:49.586Z,24.47
2017-12-30T22:34:18.436Z,31.00
2017-12-30T22:36:47.268Z,25.53
2017-12-30T22:39:16.140Z,25.40
2017-12-30T22:41:45.076Z,26.50
2017-12-30T22:44:13.910Z,28.20
2017-12-30T22:46:42.767Z,21.67
2017-12-30T22:49:11.621Z,23.23
2017-12-30T22:51:40.465Z,25.60
2017-12-30T22:54:09.312Z,25.80
2017-12-30T22:56:38.176Z,30.10
2017-12-30T22:59:07.084Z,28.07
2017-12-30T23:01:35.939Z,31.93
2017-12-30T23:04:04.824Z,18.33
2017-12-30T23:06:33.672Z,32.37
2017-12-30T23:09:02.524Z,28.03
2017-12-30T23:11:31.423Z,32.37
2017-12-30T23:14:00.280Z,22.50
2017-12-30T23:16:29.112Z,22.57
2017-12-30T23:18:58.894Z,30.60
2017-12-30T23:21:27.749Z,26.47
2017-12-30T23:23:56.595Z,26.67
2017-12-30T23:26:25.488Z,28.47
2017-12-30T23:28:54.346Z,25.03
2017-12-30T23:31:23.217Z,27.10
2017-12-30T23:33:52.104Z,29.03
2017-12-30T23:36:20.930Z,24.27
2017-12-30T23:38:49.790Z,23.57
2017-12-30T23:41:19.489Z,23.10
2017-12-30T23:43:48.344Z,24.57
2017-12-30T23:46:17.206Z,23.50
2017-12-30T23:48:46.076Z,19.00
2017-12-30T23:51:15.726Z,22.97
2017-12-30T23:53:45.316Z,24.20
2017-12-30T23:56:14.689Z,23.93
2017-12-30T23:58:43.528Z,21.77
